sensor_id;sensor_type;location;lat;lon;timestamp;P1;durP1;ratioP1;P2;durP2;ratioP2
25615;SDS011;13482;48.234;13.006;2024-02-04T00:01:32;1.65;;;1.20;;
25615;SDS011;13482;48.234;13.006;2024-02-04T00:04:01;1.85;;;1.20;;
25615;SDS011;13482;48.234;13.006;2024-02-04T00:06:29;2.00;;;1.30;;
25615;SDS011;13482;48.234;13.006;2024-02-04T00:09:01;2.63;;;1.50;;
25615;SDS011;13482;48.234;13.006;2024-02-04T00:11:30;2.15;;;1.50;;
25615;SDS011;13482;48.234;13.006;2024-02-04T00:13:59;1.58;;;1.13;;
25615;SDS011;13482;48.234;13.006;2024-02-04T00:16:28;2.90;;;1.50;;
25615;SDS011;13482;48.234;13.006;2024-02-04T00:18:56;1.77;;;1.25;;
25615;SDS011;13482;48.234;13.006;2024-02-04T00:21:24;2.10;;;1.30;;
25615;SDS011;13482;48.234;13.006;2024-02-04T00:23:54;1.55;;;1.13;;
25615;SDS011;13482;48.234;13.006;2024-02-04T00:26:22;2.65;;;1.40;;
25615;SDS011;13482;48.234;13.006;2024-02-04T00:28:50;2.10;;;1.20;;
25615;SDS011;13482;48.234;13.006;2024-02-04T00:31:18;2.20;;;1.40;;
25615;SDS011;13482;48.234;13.006;2024-02-04T00:33:46;2.28;;;1.40;;
25615;SDS011;13482;48.234;13.006;2024-02-04T00:36:19;2.22;;;1.42;;
25615;SDS011;13482;48.234;13.006;2024-02-04T00:38:48;2.15;;;1.33;;
25615;SDS011;13482;48.234;13.006;2024-02-04T00:41:16;1.83;;;1.38;;
25615;SDS011;13482;48.234;13.006;2024-02-04T00:43:44;3.05;;;1.60;;
25615;SDS011;13482;48.234;13.006;2024-02-04T00:46:15;1.92;;;1.50;;
25615;SDS011;13482;48.234;13.006;2024-02-04T00:48:42;2.20;;;1.50;;
25615;SDS011;13482;48.234;13.006;2024-02-04T00:51:11;2.00;;;1.50;;
25615;SDS011;13482;48.234;13.006;2024-02-04T00:53:39;2.13;;;1.45;;
25615;SDS011;13482;48.234;13.006;2024-02-04T00:56:07;2.50;;;1.90;;
25615;SDS011;13482;48.234;13.006;2024-02-04T00:58:36;2.47;;;1.73;;
25615;SDS011;13482;48.234;13.006;2024-02-04T01:01:04;2.50;;;1.63;;
25615;SDS011;13482;48.234;13.006;2024-02-04T01:03:33;2.45;;;1.75;;
25615;SDS011;13482;48.234;13.006;2024-02-04T01:06:01;2.10;;;1.42;;
25615;SDS011;13482;48.234;13.006;2024-02-04T01:08:28;2.78;;;2.00;;
25615;SDS011;13482;48.234;13.006;2024-02-04T01:10:56;2.38;;;1.90;;
25615;SDS011;13482;48.234;13.006;2024-02-04T01:13:24;2.30;;;1.50;;
25615;SDS011;13482;48.234;13.006;2024-02-04T01:15:52;2.10;;;1.50;;
25615;SDS011;13482;48.234;13.006;2024-02-04T01:18:20;2.00;;;1.42;;
25615;SDS011;13482;48.234;13.006;2024-02-04T01:20:48;2.20;;;1.42;;
25615;SDS011;13482;48.234;13.006;2024-02-04T01:23:15;2.00;;;1.50;;
25615;SDS011;13482;48.234;13.006;2024-02-04T01:25:46;2.20;;;1.65;;
25615;SDS011;13482;48.234;13.006;2024-02-04T01:28:14;2.58;;;1.63;;
25615;SDS011;13482;48.234;13.006;2024-02-04T01:30:42;2.33;;;1.65;;
25615;SDS011;13482;48.234;13.006;2024-02-04T01:33:09;2.25;;;1.50;;
25615;SDS011;13482;48.234;13.006;2024-02-04T01:35:37;2.45;;;1.48;;
25615;SDS011;13482;48.234;13.006;2024-02-04T01:38:05;2.00;;;1.38;;
25615;SDS011;13482;48.234;13.006;2024-02-04T01:40:32;2.03;;;1.50;;
25615;SDS011;13482;48.234;13.006;2024-02-04T01:43:00;3.00;;;1.80;;
25615;SDS011;13482;48.234;13.006;2024-02-04T01:45:28;2.30;;;1.50;;
25615;SDS011;13482;48.234;13.006;2024-02-04T01:47:56;2.25;;;1.60;;
25615;SDS011;13482;48.234;13.006;2024-02-04T01:50:24;2.45;;;1.70;;
25615;SDS011;13482;48.234;13.006;2024-02-04T01:52:54;1.90;;;1.42;;
25615;SDS011;13482;48.234;13.006;2024-02-04T01:55:22;2.38;;;1.70;;
25615;SDS011;13482;48.234;13.006;2024-02-04T01:57:50;2.20;;;1.60;;
25615;SDS011;13482;48.234;13.006;2024-02-04T02:00:18;2.30;;;1.60;;
25615;SDS011;13482;48.234;13.006;2024-02-04T02:02:46;3.08;;;1.95;;
25615;SDS011;13482;48.234;13.006;2024-02-04T02:05:15;2.65;;;1.65;;
25615;SDS011;13482;48.234;13.006;2024-02-04T02:07:43;2.22;;;1.45;;
25615;SDS011;13482;48.234;13.006;2024-02-04T02:10:14;2.05;;;1.45;;
25615;SDS011;13482;48.234;13.006;2024-02-04T02:12:52;2.17;;;1.52;;
25615;SDS011;13482;48.234;13.006;2024-02-04T02:15:30;2.38;;;1.40;;
25615;SDS011;13482;48.234;13.006;2024-02-04T02:18:10;2.30;;;1.60;;
25615;SDS011;13482;48.234;13.006;2024-02-04T02:26:23;2.45;;;1.58;;
25615;SDS011;13482;48.234;13.006;2024-02-04T02:28:51;2.30;;;1.70;;
25615;SDS011;13482;48.234;13.006;2024-02-04T02:31:19;2.35;;;1.67;;
25615;SDS011;13482;48.234;13.006;2024-02-04T02:34:00;2.10;;;1.50;;
25615;SDS011;13482;48.234;13.006;2024-02-04T02:36:29;2.67;;;1.67;;
25615;SDS011;13482;48.234;13.006;2024-02-04T02:39:17;2.55;;;1.63;;
25615;SDS011;13482;48.234;13.006;2024-02-04T02:41:50;2.08;;;1.52;;
25615;SDS011;13482;48.234;13.006;2024-02-04T02:44:23;2.50;;;1.63;;
25615;SDS011;13482;48.234;13.006;2024-02-04T02:46:55;2.08;;;1.63;;
25615;SDS011;13482;48.234;13.006;2024-02-04T02:49:25;2.67;;;1.67;;
25615;SDS011;13482;48.234;13.006;2024-02-04T02:54:27;2.90;;;1.92;;
25615;SDS011;13482;48.234;13.006;2024-02-04T03:02:06;2.80;;;1.90;;
25615;SDS011;13482;48.234;13.006;2024-02-04T03:04:33;2.53;;;1.60;;
25615;SDS011;13482;48.234;13.006;2024-02-04T03:07:02;2.15;;;1.50;;
25615;SDS011;13482;48.234;13.006;2024-02-04T03:09:32;2.45;;;1.77;;
25615;SDS011;13482;48.234;13.006;2024-02-04T03:12:01;3.22;;;1.80;;
25615;SDS011;13482;48.234;13.006;2024-02-04T03:14:28;4.50;;;2.90;;
25615;SDS011;13482;48.234;13.006;2024-02-04T03:16:57;3.85;;;2.55;;
25615;SDS011;13482;48.234;13.006;2024-02-04T03:19:24;3.35;;;2.42;;
25615;SDS011;13482;48.234;13.006;2024-02-04T03:21:52;3.33;;;2.28;;
25615;SDS011;13482;48.234;13.006;2024-02-04T03:24:20;3.45;;;2.00;;
25615;SDS011;13482;48.234;13.006;2024-02-04T03:26:48;3.25;;;2.33;;
25615;SDS011;13482;48.234;13.006;2024-02-04T03:29:16;2.45;;;1.90;;
25615;SDS011;13482;48.234;13.006;2024-02-04T03:31:43;2.75;;;1.90;;
25615;SDS011;13482;48.234;13.006;2024-02-04T03:34:11;2.45;;;1.75;;
25615;SDS011;13482;48.234;13.006;2024-02-04T03:36:39;2.47;;;1.90;;
25615;SDS011;13482;48.234;13.006;2024-02-04T03:39:07;2.80;;;2.10;;
25615;SDS011;13482;48.234;13.006;2024-02-04T03:41:37;2.55;;;1.70;;
25615;SDS011;13482;48.234;13.006;2024-02-04T03:44:06;2.25;;;1.73;;
25615;SDS011;13482;48.234;13.006;2024-02-04T03:46:34;3.03;;;1.67;;
25615;SDS011;13482;48.234;13.006;2024-02-04T03:49:09;3.85;;;1.52;;
25615;SDS011;13482;48.234;13.006;2024-02-04T03:51:37;2.37;;;1.77;;
25615;SDS011;13482;48.234;13.006;2024-02-04T03:54:05;2.20;;;1.50;;
25615;SDS011;13482;48.234;13.006;2024-02-04T03:56:33;2.30;;;1.70;;
25615;SDS011;13482;48.234;13.006;2024-02-04T03:59:00;1.90;;;1.40;;
25615;SDS011;13482;48.234;13.006;2024-02-04T04:01:28;2.10;;;1.42;;
25615;SDS011;13482;48.234;13.006;2024-02-04T04:03:56;2.17;;;1.40;;
25615;SDS011;13482;48.234;13.006;2024-02-04T04:06:24;2.13;;;1.35;;
25615;SDS011;13482;48.234;13.006;2024-02-04T04:08:53;1.90;;;1.20;;
25615;SDS011;13482;48.234;13.006;2024-02-04T04:11:21;3.05;;;1.70;;
25615;SDS011;13482;48.234;13.006;2024-02-04T04:13:48;2.00;;;1.40;;
25615;SDS011;13482;48.234;13.006;2024-02-04T04:16:19;2.25;;;1.42;;
25615;SDS011;13482;48.234;13.006;2024-02-04T04:18:49;2.17;;;1.17;;
25615;SDS011;13482;48.234;13.006;2024-02-04T04:21:16;2.88;;;1.48;;
25615;SDS011;13482;48.234;13.006;2024-02-04T04:23:44;2.63;;;1.60;;
25615;SDS011;13482;48.234;13.006;2024-02-04T04:26:12;2.10;;;1.60;;
25615;SDS011;13482;48.234;13.006;2024-02-04T04:28:39;2.80;;;1.70;;
25615;SDS011;13482;48.234;13.006;2024-02-04T04:31:07;1.75;;;1.30;;
25615;SDS011;13482;48.234;13.006;2024-02-04T04:33:35;2.00;;;1.38;;
25615;SDS011;13482;48.234;13.006;2024-02-04T04:36:04;1.77;;;1.38;;
25615;SDS011;13482;48.234;13.006;2024-02-04T04:38:32;1.60;;;1.17;;
25615;SDS011;13482;48.234;13.006;2024-02-04T04:40:59;1.92;;;1.10;;
25615;SDS011;13482;48.234;13.006;2024-02-04T04:43:27;2.28;;;1.35;;
25615;SDS011;13482;48.234;13.006;2024-02-04T04:45:54;1.95;;;1.25;;
25615;SDS011;13482;48.234;13.006;2024-02-04T04:48:22;1.58;;;1.20;;
25615;SDS011;13482;48.234;13.006;2024-02-04T04:50:50;1.63;;;1.20;;
25615;SDS011;13482;48.234;13.006;2024-02-04T04:53:18;1.90;;;1.27;;
25615;SDS011;13482;48.234;13.006;2024-02-04T04:55:46;2.03;;;1.30;;
25615;SDS011;13482;48.234;13.006;2024-02-04T04:58:13;1.92;;;1.33;;
25615;SDS011;13482;48.234;13.006;2024-02-04T05:00:41;1.45;;;1.08;;
25615;SDS011;13482;48.234;13.006;2024-02-04T05:03:09;1.63;;;1.15;;
25615;SDS011;13482;48.234;13.006;2024-02-04T05:05:36;1.95;;;1.10;;
25615;SDS011;13482;48.234;13.006;2024-02-04T05:08:04;1.92;;;1.05;;
25615;SDS011;13482;48.234;13.006;2024-02-04T05:10:32;1.67;;;1.08;;
25615;SDS011;13482;48.234;13.006;2024-02-04T05:12:59;1.83;;;1.10;;
25615;SDS011;13482;48.234;13.006;2024-02-04T05:15:27;2.05;;;1.00;;
25615;SDS011;13482;48.234;13.006;2024-02-04T05:17:56;2.25;;;1.20;;
25615;SDS011;13482;48.234;13.006;2024-02-04T05:20:24;3.08;;;1.17;;
25615;SDS011;13482;48.234;13.006;2024-02-04T05:22:52;1.85;;;1.05;;
25615;SDS011;13482;48.234;13.006;2024-02-04T05:25:20;1.40;;;0.90;;
25615;SDS011;13482;48.234;13.006;2024-02-04T05:27:48;1.67;;;1.10;;
25615;SDS011;13482;48.234;13.006;2024-02-04T05:30:15;2.10;;;1.20;;
25615;SDS011;13482;48.234;13.006;2024-02-04T05:32:43;1.38;;;1.02;;
25615;SDS011;13482;48.234;13.006;2024-02-04T05:35:11;1.58;;;1.00;;
25615;SDS011;13482;48.234;13.006;2024-02-04T05:37:39;1.73;;;1.00;;
25615;SDS011;13482;48.234;13.006;2024-02-04T05:40:07;2.17;;;1.30;;
25615;SDS011;13482;48.234;13.006;2024-02-04T05:42:35;1.45;;;1.08;;
25615;SDS011;13482;48.234;13.006;2024-02-04T05:45:03;1.08;;;0.85;;
25615;SDS011;13482;48.234;13.006;2024-02-04T05:47:32;1.50;;;1.00;;
25615;SDS011;13482;48.234;13.006;2024-02-04T05:50:00;2.03;;;1.13;;
25615;SDS011;13482;48.234;13.006;2024-02-04T05:52:28;1.70;;;1.23;;
25615;SDS011;13482;48.234;13.006;2024-02-04T05:54:55;1.75;;;1.00;;
25615;SDS011;13482;48.234;13.006;2024-02-04T05:57:26;1.73;;;1.10;;
25615;SDS011;13482;48.234;13.006;2024-02-04T05:59:54;1.70;;;1.00;;
25615;SDS011;13482;48.234;13.006;2024-02-04T06:02:22;1.23;;;0.85;;
25615;SDS011;13482;48.234;13.006;2024-02-04T06:04:49;1.52;;;0.90;;
25615;SDS011;13482;48.234;13.006;2024-02-04T06:07:17;1.25;;;0.90;;
25615;SDS011;13482;48.234;13.006;2024-02-04T06:09:45;1.40;;;0.95;;
25615;SDS011;13482;48.234;13.006;2024-02-04T06:12:12;2.00;;;1.27;;
25615;SDS011;13482;48.234;13.006;2024-02-04T06:14:40;2.22;;;1.20;;
25615;SDS011;13482;48.234;13.006;2024-02-04T06:17:08;1.80;;;1.23;;
25615;SDS011;13482;48.234;13.006;2024-02-04T06:19:37;1.88;;;1.23;;
25615;SDS011;13482;48.234;13.006;2024-02-04T06:22:04;2.00;;;1.20;;
25615;SDS011;13482;48.234;13.006;2024-02-04T06:24:33;1.60;;;1.10;;
25615;SDS011;13482;48.234;13.006;2024-02-04T06:27:03;1.63;;;1.08;;
25615;SDS011;13482;48.234;13.006;2024-02-04T06:29:31;2.00;;;1.20;;
25615;SDS011;13482;48.234;13.006;2024-02-04T06:31:59;1.77;;;1.00;;
25615;SDS011;13482;48.234;13.006;2024-02-04T06:34:26;1.55;;;1.02;;
25615;SDS011;13482;48.234;13.006;2024-02-04T06:36:54;1.55;;;1.02;;
25615;SDS011;13482;48.234;13.006;2024-02-04T06:39:22;1.50;;;0.90;;
25615;SDS011;13482;48.234;13.006;2024-02-04T06:41:49;1.88;;;1.08;;
25615;SDS011;13482;48.234;13.006;2024-02-04T06:44:17;2.10;;;1.10;;
25615;SDS011;13482;48.234;13.006;2024-02-04T06:46:44;2.50;;;1.45;;
25615;SDS011;13482;48.234;13.006;2024-02-04T06:49:13;1.60;;;1.02;;
25615;SDS011;13482;48.234;13.006;2024-02-04T06:51:45;1.90;;;1.20;;
25615;SDS011;13482;48.234;13.006;2024-02-04T06:54:14;1.67;;;1.15;;
25615;SDS011;13482;48.234;13.006;2024-02-04T06:56:42;1.70;;;1.00;;
25615;SDS011;13482;48.234;13.006;2024-02-04T06:59:10;1.50;;;0.95;;
25615;SDS011;13482;48.234;13.006;2024-02-04T07:01:38;1.83;;;1.17;;
25615;SDS011;13482;48.234;13.006;2024-02-04T07:04:06;1.67;;;0.95;;
25615;SDS011;13482;48.234;13.006;2024-02-04T07:06:34;1.77;;;1.15;;
25615;SDS011;13482;48.234;13.006;2024-02-04T07:09:02;1.38;;;0.90;;
25615;SDS011;13482;48.234;13.006;2024-02-04T07:11:29;1.73;;;1.23;;
25615;SDS011;13482;48.234;13.006;2024-02-04T07:13:57;2.20;;;1.33;;
25615;SDS011;13482;48.234;13.006;2024-02-04T07:16:27;1.80;;;1.10;;
25615;SDS011;13482;48.234;13.006;2024-02-04T07:18:54;2.15;;;1.30;;
25615;SDS011;13482;48.234;13.006;2024-02-04T07:21:23;1.70;;;1.20;;
25615;SDS011;13482;48.234;13.006;2024-02-04T07:23:50;2.13;;;1.30;;
25615;SDS011;13482;48.234;13.006;2024-02-04T07:26:18;2.05;;;1.33;;
25615;SDS011;13482;48.234;13.006;2024-02-04T07:28:45;2.42;;;1.50;;
25615;SDS011;13482;48.234;13.006;2024-02-04T07:31:13;3.40;;;1.33;;
25615;SDS011;13482;48.234;13.006;2024-02-04T07:33:41;2.45;;;1.30;;
25615;SDS011;13482;48.234;13.006;2024-02-04T07:36:10;2.30;;;1.48;;
25615;SDS011;13482;48.234;13.006;2024-02-04T07:38:39;2.80;;;1.17;;
25615;SDS011;13482;48.234;13.006;2024-02-04T07:41:06;2.70;;;1.40;;
25615;SDS011;13482;48.234;13.006;2024-02-04T07:43:34;1.65;;;1.08;;
25615;SDS011;13482;48.234;13.006;2024-02-04T07:46:02;1.63;;;1.20;;
25615;SDS011;13482;48.234;13.006;2024-02-04T07:48:31;2.90;;;1.40;;
25615;SDS011;13482;48.234;13.006;2024-02-04T07:50:59;2.28;;;1.30;;
25615;SDS011;13482;48.234;13.006;2024-02-04T07:53:27;1.88;;;1.17;;
25615;SDS011;13482;48.234;13.006;2024-02-04T07:55:54;2.42;;;1.40;;
25615;SDS011;13482;48.234;13.006;2024-02-04T07:58:23;2.15;;;1.30;;
25615;SDS011;13482;48.234;13.006;2024-02-04T08:00:51;2.15;;;1.20;;
25615;SDS011;13482;48.234;13.006;2024-02-04T08:03:18;1.77;;;1.05;;
25615;SDS011;13482;48.234;13.006;2024-02-04T08:05:46;1.95;;;1.20;;
25615;SDS011;13482;48.234;13.006;2024-02-04T08:08:14;1.80;;;1.17;;
25615;SDS011;13482;48.234;13.006;2024-02-04T08:10:42;1.83;;;1.00;;
25615;SDS011;13482;48.234;13.006;2024-02-04T08:13:09;2.17;;;1.10;;
25615;SDS011;13482;48.234;13.006;2024-02-04T08:15:37;2.75;;;0.98;;
25615;SDS011;13482;48.234;13.006;2024-02-04T08:18:05;1.40;;;0.93;;
25615;SDS011;13482;48.234;13.006;2024-02-04T08:20:34;2.42;;;0.98;;
25615;SDS011;13482;48.234;13.006;2024-02-04T08:23:01;1.70;;;0.98;;
25615;SDS011;13482;48.234;13.006;2024-02-04T08:25:30;1.58;;;0.80;;
25615;SDS011;13482;48.234;13.006;2024-02-04T08:27:58;1.33;;;0.90;;
25615;SDS011;13482;48.234;13.006;2024-02-04T08:30:25;1.55;;;0.82;;
25615;SDS011;13482;48.234;13.006;2024-02-04T08:32:56;1.20;;;0.70;;
25615;SDS011;13482;48.234;13.006;2024-02-04T08:35:24;1.63;;;1.02;;
25615;SDS011;13482;48.234;13.006;2024-02-04T08:38:10;1.23;;;0.70;;
25615;SDS011;13482;48.234;13.006;2024-02-04T08:53:22;0.98;;;0.60;;
25615;SDS011;13482;48.234;13.006;2024-02-04T08:55:50;1.15;;;0.60;;
25615;SDS011;13482;48.234;13.006;2024-02-04T08:58:19;1.25;;;0.60;;
25615;SDS011;13482;48.234;13.006;2024-02-04T09:01:17;0.93;;;0.50;;
25615;SDS011;13482;48.234;13.006;2024-02-04T09:03:47;1.02;;;0.65;;
25615;SDS011;13482;48.234;13.006;2024-02-04T09:06:15;1.20;;;0.70;;
25615;SDS011;13482;48.234;13.006;2024-02-04T09:08:45;1.33;;;0.60;;
25615;SDS011;13482;48.234;13.006;2024-02-04T09:11:15;1.10;;;0.60;;
25615;SDS011;13482;48.234;13.006;2024-02-04T09:13:46;1.15;;;0.60;;
25615;SDS011;13482;48.234;13.006;2024-02-04T09:16:16;1.45;;;1.08;;
25615;SDS011;13482;48.234;13.006;2024-02-04T09:18:45;3.30;;;2.30;;
25615;SDS011;13482;48.234;13.006;2024-02-04T09:21:14;2.22;;;1.40;;
25615;SDS011;13482;48.234;13.006;2024-02-04T09:23:44;1.88;;;1.02;;
25615;SDS011;13482;48.234;13.006;2024-02-04T09:26:12;2.58;;;1.10;;
25615;SDS011;13482;48.234;13.006;2024-02-04T09:28:45;1.67;;;1.00;;
25615;SDS011;13482;48.234;13.006;2024-02-04T09:31:13;1.20;;;0.77;;
25615;SDS011;13482;48.234;13.006;2024-02-04T09:33:41;1.50;;;0.90;;
25615;SDS011;13482;48.234;13.006;2024-02-04T09:36:11;1.85;;;1.08;;
25615;SDS011;13482;48.234;13.006;2024-02-04T09:38:43;1.60;;;0.98;;
25615;SDS011;13482;48.234;13.006;2024-02-04T09:41:11;1.58;;;1.08;;
25615;SDS011;13482;48.234;13.006;2024-02-04T09:43:41;1.23;;;0.82;;
25615;SDS011;13482;48.234;13.006;2024-02-04T09:46:13;1.35;;;0.82;;
25615;SDS011;13482;48.234;13.006;2024-02-04T09:48:44;1.83;;;1.08;;
25615;SDS011;13482;48.234;13.006;2024-02-04T09:51:21;1.73;;;1.08;;
25615;SDS011;13482;48.234;13.006;2024-02-04T09:53:52;2.08;;;1.30;;
25615;SDS011;13482;48.234;13.006;2024-02-04T09:56:22;3.80;;;1.67;;
25615;SDS011;13482;48.234;13.006;2024-02-04T09:58:55;1.88;;;1.17;;
25615;SDS011;13482;48.234;13.006;2024-02-04T10:01:25;2.60;;;1.80;;
25615;SDS011;13482;48.234;13.006;2024-02-04T10:03:54;3.45;;;2.58;;
25615;SDS011;13482;48.234;13.006;2024-02-04T10:06:24;3.58;;;2.10;;
25615;SDS011;13482;48.234;13.006;2024-02-04T10:08:53;3.53;;;2.70;;
25615;SDS011;13482;48.234;13.006;2024-02-04T10:11:26;2.55;;;1.55;;
25615;SDS011;13482;48.234;13.006;2024-02-04T10:13:56;2.47;;;1.95;;
25615;SDS011;13482;48.234;13.006;2024-02-04T10:16:25;7.88;;;6.95;;
25615;SDS011;13482;48.234;13.006;2024-02-04T10:18:53;9.45;;;8.05;;
25615;SDS011;13482;48.234;13.006;2024-02-04T10:21:24;9.00;;;7.65;;
25615;SDS011;13482;48.234;13.006;2024-02-04T10:23:56;7.45;;;6.05;;
25615;SDS011;13482;48.234;13.006;2024-02-04T10:26:28;4.93;;;4.15;;
25615;SDS011;13482;48.234;13.006;2024-02-04T10:29:02;3.65;;;2.95;;
25615;SDS011;13482;48.234;13.006;2024-02-04T10:31:33;4.10;;;2.08;;
25615;SDS011;13482;48.234;13.006;2024-02-04T10:34:06;1.92;;;1.33;;
25615;SDS011;13482;48.234;13.006;2024-02-04T10:36:39;2.53;;;1.00;;
25615;SDS011;13482;48.234;13.006;2024-02-04T10:39:08;1.50;;;0.80;;
25615;SDS011;13482;48.234;13.006;2024-02-04T10:41:38;1.35;;;0.70;;
25615;SDS011;13482;48.234;13.006;2024-02-04T10:44:23;1.35;;;0.60;;
25615;SDS011;13482;48.234;13.006;2024-02-04T10:46:52;1.77;;;0.82;;
25615;SDS011;13482;48.234;13.006;2024-02-04T10:49:23;0.93;;;0.60;;
25615;SDS011;13482;48.234;13.006;2024-02-04T10:51:55;0.88;;;0.50;;
25615;SDS011;13482;48.234;13.006;2024-02-04T10:54:31;1.23;;;0.68;;
25615;SDS011;13482;48.234;13.006;2024-02-04T10:57:03;1.60;;;0.68;;
25615;SDS011;13482;48.234;13.006;2024-02-04T10:59:41;2.30;;;0.70;;
25615;SDS011;13482;48.234;13.006;2024-02-04T11:02:17;1.20;;;0.77;;
25615;SDS011;13482;48.234;13.006;2024-02-04T11:04:49;0.98;;;0.60;;
25615;SDS011;13482;48.234;13.006;2024-02-04T11:07:22;1.30;;;0.80;;
25615;SDS011;13482;48.234;13.006;2024-02-04T11:09:51;1.35;;;0.65;;
25615;SDS011;13482;48.234;13.006;2024-02-04T11:12:22;2.08;;;0.80;;
25615;SDS011;13482;48.234;13.006;2024-02-04T11:14:55;1.25;;;0.75;;
25615;SDS011;13482;48.234;13.006;2024-02-04T11:24:10;42.10;;;23.67;;
25615;SDS011;13482;48.234;13.006;2024-02-04T11:27:08;51.47;;;29.30;;
25615;SDS011;13482;48.234;13.006;2024-02-04T11:29:39;20.65;;;12.48;;
25615;SDS011;13482;48.234;13.006;2024-02-04T11:32:07;10.73;;;7.07;;
25615;SDS011;13482;48.234;13.006;2024-02-04T11:34:38;8.65;;;6.07;;
25615;SDS011;13482;48.234;13.006;2024-02-04T11:37:16;3.80;;;2.72;;
25615;SDS011;13482;48.234;13.006;2024-02-04T11:39:50;2.72;;;1.75;;
25615;SDS011;13482;48.234;13.006;2024-02-04T11:42:22;2.90;;;1.30;;
25615;SDS011;13482;48.234;13.006;2024-02-04T11:45:05;2.67;;;0.90;;
25615;SDS011;13482;48.234;13.006;2024-02-04T11:47:40;2.45;;;1.38;;
25615;SDS011;13482;48.234;13.006;2024-02-04T11:50:11;2.20;;;1.63;;
25615;SDS011;13482;48.234;13.006;2024-02-04T11:52:45;1.83;;;1.00;;
25615;SDS011;13482;48.234;13.006;2024-02-04T11:55:22;1.70;;;1.00;;
25615;SDS011;13482;48.234;13.006;2024-02-04T11:57:53;2.97;;;2.30;;
25615;SDS011;13482;48.234;13.006;2024-02-04T12:00:25;1.63;;;1.02;;
25615;SDS011;13482;48.234;13.006;2024-02-04T12:03:00;1.50;;;1.10;;
25615;SDS011;13482;48.234;13.006;2024-02-04T12:05:38;2.05;;;1.48;;
25615;SDS011;13482;48.234;13.006;2024-02-04T12:08:08;3.63;;;2.70;;
25615;SDS011;13482;48.234;13.006;2024-02-04T12:10:37;2.47;;;1.50;;
25615;SDS011;13482;48.234;13.006;2024-02-04T12:13:12;4.05;;;3.00;;
25615;SDS011;13482;48.234;13.006;2024-02-04T12:15:41;4.88;;;2.97;;
25615;SDS011;13482;48.234;13.006;2024-02-04T12:18:12;5.82;;;4.82;;
25615;SDS011;13482;48.234;13.006;2024-02-04T12:20:43;5.97;;;5.03;;
25615;SDS011;13482;48.234;13.006;2024-02-04T12:23:12;5.07;;;4.13;;
25615;SDS011;13482;48.234;13.006;2024-02-04T12:25:41;5.65;;;3.35;;
25615;SDS011;13482;48.234;13.006;2024-02-04T12:28:15;2.92;;;1.90;;
25615;SDS011;13482;48.234;13.006;2024-02-04T12:30:53;1.90;;;1.30;;
25615;SDS011;13482;48.234;13.006;2024-02-04T12:33:29;1.65;;;1.00;;
25615;SDS011;13482;48.234;13.006;2024-02-04T12:36:00;1.27;;;0.60;;
25615;SDS011;13482;48.234;13.006;2024-02-04T12:44:07;0.93;;;0.60;;
25615;SDS011;13482;48.234;13.006;2024-02-04T12:49:32;1.60;;;0.73;;
25615;SDS011;13482;48.234;13.006;2024-02-04T13:00:13;0.80;;;0.40;;
25615;SDS011;13482;48.234;13.006;2024-02-04T13:11:28;1.10;;;0.63;;
25615;SDS011;13482;48.234;13.006;2024-02-04T13:18:36;1.30;;;0.60;;
25615;SDS011;13482;48.234;13.006;2024-02-04T13:21:08;1.17;;;0.60;;
25615;SDS011;13482;48.234;13.006;2024-02-04T13:25:01;1.40;;;0.57;;
25615;SDS011;13482;48.234;13.006;2024-02-04T13:27:35;1.10;;;0.40;;
25615;SDS011;13482;48.234;13.006;2024-02-04T13:30:08;0.98;;;0.50;;
25615;SDS011;13482;48.234;13.006;2024-02-04T13:32:40;3.15;;;0.50;;
25615;SDS011;13482;48.234;13.006;2024-02-04T13:35:08;1.83;;;0.52;;
25615;SDS011;13482;48.234;13.006;2024-02-04T13:40:21;1.70;;;0.50;;
25615;SDS011;13482;48.234;13.006;2024-02-04T13:45:21;1.08;;;0.40;;
25615;SDS011;13482;48.234;13.006;2024-02-04T13:54:01;1.48;;;0.45;;
25615;SDS011;13482;48.234;13.006;2024-02-04T13:56:30;1.08;;;0.52;;
25615;SDS011;13482;48.234;13.006;2024-02-04T13:59:01;0.70;;;0.30;;
25615;SDS011;13482;48.234;13.006;2024-02-04T14:01:31;3.15;;;0.60;;
25615;SDS011;13482;48.234;13.006;2024-02-04T14:04:01;2.08;;;0.70;;
25615;SDS011;13482;48.234;13.006;2024-02-04T14:06:31;1.20;;;0.65;;
25615;SDS011;13482;48.234;13.006;2024-02-04T14:09:22;1.65;;;0.80;;
25615;SDS011;13482;48.234;13.006;2024-02-04T14:11:51;1.42;;;0.60;;
25615;SDS011;13482;48.234;13.006;2024-02-04T14:16:55;1.33;;;0.60;;
25615;SDS011;13482;48.234;13.006;2024-02-04T14:19:24;1.40;;;0.50;;
25615;SDS011;13482;48.234;13.006;2024-02-04T14:21:54;1.80;;;0.70;;
25615;SDS011;13482;48.234;13.006;2024-02-04T14:24:25;2.22;;;0.60;;
25615;SDS011;13482;48.234;13.006;2024-02-04T14:27:00;0.98;;;0.60;;
25615;SDS011;13482;48.234;13.006;2024-02-04T14:29:35;1.65;;;0.65;;
25615;SDS011;13482;48.234;13.006;2024-02-04T14:32:04;1.40;;;0.65;;
25615;SDS011;13482;48.234;13.006;2024-02-04T14:34:35;2.22;;;0.63;;
25615;SDS011;13482;48.234;13.006;2024-02-04T14:37:04;1.35;;;0.70;;
25615;SDS011;13482;48.234;13.006;2024-02-04T14:39:36;2.72;;;0.70;;
25615;SDS011;13482;48.234;13.006;2024-02-04T14:42:04;2.40;;;0.60;;
25615;SDS011;13482;48.234;13.006;2024-02-04T14:44:36;2.47;;;0.80;;
25615;SDS011;13482;48.234;13.006;2024-02-04T23:24:00;0.70;;;0.32;;
